Akademic — LZDA — position and weather

sailwx.info

Track history (hours):
 
Tides and Currents Weather Stations Pressure Air Temp Water Temp Dewpoint Dewpoint Depression Visibility Wind Speed Wind Dir Waves Ship Positions

Oceanographic research ship Akademic (Bulgaria)

Detailed information on ship capabilities available from University of Delaware's Ocean Information Center.

Last reported at 2019-Oct-03 19:05 UTC. Time now 2019-Oct-17 17:11 UTC.
Position N 43°09' E 028°50'.
Warning: this ship's position is 13 days out of date.

Length 55 m; draft 4.8 m.

Type: Other ship. MMSI: 207038000.

Date/timePositionNaut miles runAvg speedWind from/ knotsBaromVisibWave heightAir tempDewpointWater temp
2019-Oct-03 19:05N 43°09' E 028°50'1 5.3
2019-Oct-03 18:53N 43°09' E 028°52'2 5.2
2019-Oct-03 18:30N 43°10' E 028°54'2 4.8
2019-Oct-03 18:00N 43°10' E 028°57'1 2.6
2019-Oct-03 17:31N 43°11' E 028°59'0 0.5
2019-Oct-03 16:59N 43°10' E 028°59'0 0.5
2019-Oct-03 16:30N 43°10' E 028°60'0 0.5
2019-Oct-03 15:59N 43°10' E 029°00'0 0.8
2019-Oct-03 15:30N 43°11' E 028°60'0 0.8
2019-Oct-03 15:00N 43°11' E 028°59'0 0.5
2019-Oct-03 14:30N 43°11' E 028°60'0 0.3
2019-Oct-03 14:01N 43°11' E 028°60'0 0.4
2019-Oct-03 13:30N 43°10' E 028°60'1 0.3
2019-Oct-03 11:40N 43°11' E 029°00'0 0.3
2019-Oct-03 11:31N 43°11' E 029°00'0 0.3
2019-Oct-03 11:00N 43°11' E 029°00'0 0.3
2019-Oct-03 09:29N 43°10' E 029°00'0 0.0
2019-Oct-03 05:12N 43°10' E 029°00'0 0.3
2019-Oct-03 05:00N 43°10' E 028°60'2 3.5
2019-Oct-03 04:25N 43°10' E 028°57'2 5.2
2019-Oct-03 04:01N 43°10' E 028°54'2 4.1
2019-Oct-03 03:30N 43°10' E 028°51'2 4.6
2019-Oct-03 03:01N 43°10' E 028°48'4 4.6
2019-Oct-03 02:12N 43°10' E 028°43'1 4.6
2019-Oct-03 01:57N 43°10' E 028°42'3 4.7
2019-Oct-03 01:20N 43°10' E 028°38'2 4.7
2019-Oct-03 01:00N 43°10' E 028°36'3 4.7
2019-Oct-03 00:28N 43°10' E 028°32'3 4.5
2019-Oct-02 23:54N 43°10' E 028°29'2 4.3
2019-Oct-02 23:30N 43°10' E 028°26'2 4.4
2019-Oct-02 22:57N 43°10' E 028°23'2 4.5
2019-Oct-02 22:31N 43°10' E 028°20'2 4.7
2019-Oct-02 21:59N 43°10' E 028°17'2 4.6
2019-Oct-02 21:31N 43°10' E 028°14'3 4.9
2019-Oct-02 20:59N 43°10' E 028°10'0 0.3
2019-Oct-02 20:29N 43°10' E 028°10'0 0.0
2019-Oct-02 20:00N 43°10' E 028°10'0 0.0
2019-Oct-02 19:30N 43°10' E 028°10'0 0.0
2019-Oct-02 19:00N 43°10' E 028°10'0 0.0
2019-Oct-02 18:30N 43°10' E 028°10'0 0.0
2019-Oct-02 18:00N 43°10' E 028°10'0 0.0
2019-Oct-02 17:31N 43°10' E 028°10'0 0.0
2019-Oct-02 17:00N 43°10' E 028°10'0 0.0
2019-Oct-02 16:30N 43°10' E 028°10'0 0.0
2019-Oct-02 15:57N 43°10' E 028°10'2 4.6
2019-Oct-02 15:29N 43°10' E 028°07'4 7.5
2019-Oct-02 15:00N 43°10' E 028°02'  
Track history (hours):
 
Tides and Currents Weather Stations Pressure Air Temp Water Temp Dewpoint Dewpoint Depression Visibility Wind Speed Wind Dir Waves Ship Positions

Oceanographic research ship Akademic (Bulgaria)

Detailed information on ship capabilities available from University of Delaware's Ocean Information Center.

Last reported at 2019-Oct-03 19:05 UTC. Time now 2019-Oct-17 17:11 UTC.
Position N 43°09' E 028°50'.
Warning: this ship's position is 13 days out of date.

Length 55 m; draft 4.8 m.

Type: Other ship. MMSI: 207038000.

Date/timePositionNaut miles runAvg speedWind from/ knotsBaromVisibWave heightAir tempDewpointWater temp
2019-Oct-03 19:05N 43°09' E 028°50'1 5.3
2019-Oct-03 18:53N 43°09' E 028°52'2 5.2
2019-Oct-03 18:30N 43°10' E 028°54'2 4.8
2019-Oct-03 18:00N 43°10' E 028°57'1 2.6
2019-Oct-03 17:31N 43°11' E 028°59'0 0.5
2019-Oct-03 16:59N 43°10' E 028°59'0 0.5
2019-Oct-03 16:30N 43°10' E 028°60'0 0.5
2019-Oct-03 15:59N 43°10' E 029°00'0 0.8
2019-Oct-03 15:30N 43°11' E 028°60'0 0.8
2019-Oct-03 15:00N 43°11' E 028°59'0 0.5
2019-Oct-03 14:30N 43°11' E 028°60'0 0.3
2019-Oct-03 14:01N 43°11' E 028°60'0 0.4
2019-Oct-03 13:30N 43°10' E 028°60'1 0.3
2019-Oct-03 11:40N 43°11' E 029°00'0 0.3
2019-Oct-03 11:31N 43°11' E 029°00'0 0.3
2019-Oct-03 11:00N 43°11' E 029°00'0 0.3
2019-Oct-03 09:29N 43°10' E 029°00'0 0.0
2019-Oct-03 05:12N 43°10' E 029°00'0 0.3
2019-Oct-03 05:00N 43°10' E 028°60'2 3.5
2019-Oct-03 04:25N 43°10' E 028°57'2 5.2
2019-Oct-03 04:01N 43°10' E 028°54'2 4.1
2019-Oct-03 03:30N 43°10' E 028°51'2 4.6
2019-Oct-03 03:01N 43°10' E 028°48'4 4.6
2019-Oct-03 02:12N 43°10' E 028°43'1 4.6
2019-Oct-03 01:57N 43°10' E 028°42'3 4.7
2019-Oct-03 01:20N 43°10' E 028°38'2 4.7
2019-Oct-03 01:00N 43°10' E 028°36'3 4.7
2019-Oct-03 00:28N 43°10' E 028°32'3 4.5
2019-Oct-02 23:54N 43°10' E 028°29'2 4.3
2019-Oct-02 23:30N 43°10' E 028°26'2 4.4
2019-Oct-02 22:57N 43°10' E 028°23'2 4.5
2019-Oct-02 22:31N 43°10' E 028°20'2 4.7
2019-Oct-02 21:59N 43°10' E 028°17'2 4.6
2019-Oct-02 21:31N 43°10' E 028°14'3 4.9
2019-Oct-02 20:59N 43°10' E 028°10'0 0.3
2019-Oct-02 20:29N 43°10' E 028°10'0 0.0
2019-Oct-02 20:00N 43°10' E 028°10'0 0.0
2019-Oct-02 19:30N 43°10' E 028°10'0 0.0
2019-Oct-02 19:00N 43°10' E 028°10'0 0.0
2019-Oct-02 18:30N 43°10' E 028°10'0 0.0
2019-Oct-02 18:00N 43°10' E 028°10'0 0.0
2019-Oct-02 17:31N 43°10' E 028°10'0 0.0
2019-Oct-02 17:00N 43°10' E 028°10'0 0.0
2019-Oct-02 16:30N 43°10' E 028°10'0 0.0
2019-Oct-02 15:57N 43°10' E 028°10'2 4.6
2019-Oct-02 15:29N 43°10' E 028°07'4 7.5
2019-Oct-02 15:00N 43°10' E 028°02'  

Dump ship's entire track history